HKEL

Eldoret International Airport

Eldoret, Kenya
METAR HKEL 161830Z VRB02KT 9999 -RA FEW018CB SCT019 BKN080 16/14 Q1027
Observed Flight Rules
Jan-16 @ 18:30 UTC (38 minutes ago) Visual Flight Rules
Wind Visibility Clouds Conditions
Variable at 2 knots 10,000+ meters
  • Few at 1,800' AGL
  • Scattered at 1,900' AGL
  • Broken at 8,000' AGL
  • Light Rain
Temperatures Readings
Current 16°C / 61°F
Dewpoint 14°C / 57°F
Humidity 88%
Altimeter 30.32" Hg
Pressure 1026.92 hPa
Elevation 2133
METAR HKEL 161830Z VRB02KT 9999 -RA FEW018CB SCT019 BKN080 16/14 Q1027
Observed Flight Rules
Jan-16 @ 18:30 UTC
(38 minutes ago)
VFR
Wind Visibility
Variable at 2 knots 10,000+ meters
Clouds
  • Few at 1,800' AGL
  • Scattered at 1,900' AGL
  • Broken at 8,000' AGL
Conditions
  • Light Rain
Temperature Dewpoint
16°C / 61°F 14°C / 57°F
Humidity Altimeter Pressure
88% 30.32" Hg 1026.92 hPa